Time;durP1;ratioP1;P1;durP2;ratioP2;P2;SDS_P1;SDS_P2;PMS_P1;PMS_P2;Temp;Humidity;BMP_temperature;BMP_pressure;BME280_temperature;BME280_humidity;BME280_pressure;Samples;Min_cycle;Max_cycle;Signal;HPM_P1;HPM_P2
2021/12/06 00:01:57;;;;;;;2.95;1.60;;;4.70;93.10;;;;;;5155691;27;20066;-77
2021/12/06 00:04:27;;;;;;;3.20;1.80;;;4.80;93.10;;;;;;5136841;27;20059;-77
2021/12/06 00:06:56;;;;;;;3.60;1.77;;;4.80;93.10;;;;;;5136927;27;20041;-77
2021/12/06 00:09:26;;;;;;;2.50;1.52;;;4.70;93.10;;;;;;5136482;27;20063;-77
2021/12/06 00:11:57;;;;;;;3.22;1.70;;;4.80;93.10;;;;;;5136438;27;20046;-77
2021/12/06 00:14:28;;;;;;;2.43;1.47;;;4.70;93.10;;;;;;5119893;27;20058;-77
2021/12/06 00:16:55;;;;;;;2.33;1.35;;;4.70;93.10;;;;;;5136925;27;20058;-77
2021/12/06 00:19:21;;;;;;;3.45;1.63;;;4.70;93.10;;;;;;5137309;27;20035;-77
2021/12/06 00:21:47;;;;;;;3.40;1.70;;;4.70;93.10;;;;;;5119171;27;20045;-77
2021/12/06 00:24:13;;;;;;;1.98;1.15;;;4.70;93.40;;;;;;5136926;27;20106;-77
2021/12/06 00:26:38;;;;;;;2.90;1.45;;;4.70;93.10;;;;;;5136566;27;20038;-77
2021/12/06 00:29:04;;;;;;;2.70;1.23;;;4.70;93.10;;;;;;5155922;27;20042;-77
2021/12/06 00:31:33;;;;;;;4.05;2.10;;;4.70;93.10;;;;;;5119506;27;20492;-77
2021/12/06 00:34:04;;;;;;;3.55;1.77;;;4.70;93.10;;;;;;5119682;27;20374;-77
2021/12/06 00:36:34;;;;;;;2.80;1.60;;;4.70;93.10;;;;;;5136966;27;20429;-77
2021/12/06 00:39:03;;;;;;;2.72;1.33;;;4.70;93.10;;;;;;5155418;27;20039;-77
2021/12/06 00:41:29;;;;;;;3.65;1.90;;;4.70;93.10;;;;;;5137132;27;20082;-77
2021/12/06 00:43:55;;;;;;;1.88;1.15;;;4.70;93.20;;;;;;5136543;27;20034;-77
2021/12/06 00:46:22;;;;;;;3.63;1.70;;;4.70;93.10;;;;;;5154897;27;20465;-77
2021/12/06 00:48:48;;;;;;;3.50;1.45;;;4.60;93.10;;;;;;5136813;27;20076;-77
2021/12/06 00:51:15;;;;;;;3.42;1.80;;;4.60;93.10;;;;;;5119713;27;20046;-76
2021/12/06 00:53:42;;;;;;;2.50;1.23;;;4.70;93.40;;;;;;5155152;27;20071;-77
2021/12/06 00:56:08;;;;;;;3.00;1.55;;;4.70;93.20;;;;;;5155301;27;20114;-77
2021/12/06 00:58:34;;;;;;;3.13;1.40;;;4.60;93.10;;;;;;5136775;27;20563;-77
2021/12/06 01:01:00;;;;;;;3.17;1.75;;;4.70;93.20;;;;;;5136830;27;20481;-77
2021/12/06 01:03:30;;;;;;;3.95;1.95;;;4.70;93.20;;;;;;5137809;27;20065;-78
2021/12/06 01:05:56;;;;;;;3.35;1.52;;;4.70;93.20;;;;;;5155484;27;20052;-77
2021/12/06 01:08:23;;;;;;;4.80;1.90;;;4.70;93.20;;;;;;5119969;27;20062;-78
2021/12/06 01:10:50;;;;;;;5.78;2.38;;;4.70;93.20;;;;;;5137154;27;20122;-77
2021/12/06 01:13:17;;;;;;;4.80;1.95;;;4.70;93.10;;;;;;5120394;27;20060;-77
2021/12/06 01:15:43;;;;;;;4.32;2.00;;;4.70;93.10;;;;;;5120214;27;20042;-77
2021/12/06 01:18:12;;;;;;;4.53;2.40;;;4.70;93.10;;;;;;5122808;27;20060;-77
2021/12/06 01:20:47;;;;;;;3.75;2.22;;;4.70;93.10;;;;;;5140101;27;20922;-77
2021/12/06 01:23:16;;;;;;;5.47;2.15;;;4.70;93.10;;;;;;5125619;27;20371;-77
2021/12/06 01:25:54;;;;;;;4.78;2.30;;;4.70;93.10;;;;;;5122989;27;20159;-77
2021/12/06 01:28:47;;;;;;;3.35;1.67;;;4.70;93.10;;;;;;5158810;27;20062;-78
2021/12/06 01:31:12;;;;;;;4.05;1.83;;;4.80;93.10;;;;;;5142887;27;20053;-77
2021/12/06 01:34:03;;;;;;;3.20;1.80;;;4.60;93.10;;;;;;5077683;28;20042;-77
2021/12/06 01:39:13;;;;;;;2.75;1.73;;;4.60;93.10;;;;;;5074100;28;20056;-77
2021/12/06 01:41:43;;;;;;;2.65;1.48;;;4.70;93.20;;;;;;5057513;28;20041;-77
2021/12/06 01:44:25;;;;;;;3.75;1.70;;;4.70;93.20;;;;;;5057179;28;20147;-77
2021/12/06 01:47:01;;;;;;;3.10;1.67;;;4.60;93.20;;;;;;5074307;28;20194;-77
2021/12/06 01:49:30;;;;;;;3.53;1.65;;;4.70;93.20;;;;;;5074702;28;20060;-77
2021/12/06 01:51:58;;;;;;;2.80;1.70;;;4.70;93.20;;;;;;5057597;28;20060;-77
2021/12/06 01:54:24;;;;;;;4.13;1.95;;;4.70;93.20;;;;;;5057555;28;20055;-77
2021/12/06 01:56:51;;;;;;;3.75;1.75;;;4.70;93.20;;;;;;5074505;28;20040;-77
2021/12/06 01:59:19;;;;;;;3.72;1.83;;;4.60;93.10;;;;;;5074312;28;20561;-77
2021/12/06 02:01:45;;;;;;;2.80;1.45;;;4.70;93.10;;;;;;5074886;28;20041;-77
2021/12/06 02:04:12;;;;;;;3.83;1.85;;;4.70;93.20;;;;;;5099588;27;20383;-77
2021/12/06 02:06:38;;;;;;;3.85;1.60;;;4.70;93.20;;;;;;5122399;27;20038;-77
2021/12/06 02:09:07;;;;;;;5.15;2.33;;;4.70;93.20;;;;;;5122065;27;20046;-76
2021/12/06 02:11:35;;;;;;;5.60;2.33;;;4.60;93.20;;;;;;5158500;27;20561;-77
2021/12/06 02:14:16;;;;;;;4.38;2.22;;;4.80;93.20;;;;;;5158461;27;20042;-77
2021/12/06 02:16:59;;;;;;;5.00;2.13;;;4.70;93.20;;;;;;5158095;27;20429;-77
2021/12/06 02:19:31;;;;;;;3.90;1.88;;;4.70;93.10;;;;;;5141667;27;20034;-76
2021/12/06 02:21:59;;;;;;;4.80;2.10;;;4.70;93.20;;;;;;5139186;27;20038;-77
2021/12/06 02:24:25;;;;;;;4.88;2.15;;;4.70;93.20;;;;;;5122663;27;20046;-77
2021/12/06 02:26:51;;;;;;;4.45;2.17;;;4.70;93.20;;;;;;5158041;27;20493;-77
2021/12/06 02:29:17;;;;;;;3.55;1.70;;;4.70;93.20;;;;;;5158388;27;20042;-77
2021/12/06 02:31:43;;;;;;;5.30;2.42;;;4.70;93.20;;;;;;5140391;27;20047;-77
2021/12/06 02:34:09;;;;;;;4.38;2.08;;;4.70;93.20;;;;;;5158169;27;20046;-77
2021/12/06 02:36:35;;;;;;;3.88;1.80;;;4.80;93.20;;;;;;5139372;27;20035;-77
2021/12/06 02:39:02;;;;;;;5.40;2.03;;;4.70;93.20;;;;;;5139878;27;20039;-77
2021/12/06 02:41:29;;;;;;;4.32;2.00;;;4.70;93.20;;;;;;5139218;27;20027;-77
2021/12/06 02:43:55;;;;;;;5.13;2.08;;;4.70;93.20;;;;;;5122268;27;20034;-77
2021/12/06 02:46:22;;;;;;;3.90;1.67;;;4.70;93.20;;;;;;5122110;27;20046;-77
2021/12/06 02:48:48;;;;;;;5.15;2.55;;;4.70;93.20;;;;;;5122528;27;20569;-76
2021/12/06 02:51:15;;;;;;;3.10;1.60;;;4.70;93.20;;;;;;5138270;27;20039;-77
2021/12/06 02:53:42;;;;;;;4.00;1.73;;;4.70;93.20;;;;;;5106724;27;20096;-77
2021/12/06 02:56:28;;;;;;;3.95;1.92;;;4.80;93.20;;;;;;5138597;27;20109;-78
2021/12/06 02:58:56;;;;;;;4.05;1.83;;;4.70;93.50;;;;;;5136971;27;20043;-76
2021/12/06 03:01:28;;;;;;;3.83;1.80;;;4.70;93.20;;;;;;5139174;27;20451;-77
2021/12/06 03:03:55;;;;;;;2.85;1.45;;;4.70;93.20;;;;;;5105336;27;20397;-77
2021/12/06 03:06:21;;;;;;;3.63;1.80;;;4.80;93.20;;;;;;5122284;27;20050;-77
2021/12/06 03:08:54;;;;;;;3.83;1.80;;;4.70;93.20;;;;;;5139095;27;20038;-76
2021/12/06 03:11:29;;;;;;;4.40;1.77;;;4.70;93.20;;;;;;5138685;27;20030;-77
2021/12/06 03:13:55;;;;;;;3.17;1.40;;;4.70;93.20;;;;;;5157243;27;20074;-76
2021/12/06 03:16:22;;;;;;;4.13;1.52;;;4.70;93.20;;;;;;5156689;27;20053;-76
2021/12/06 03:18:51;;;;;;;4.30;1.83;;;4.70;93.20;;;;;;5156972;27;20427;-77
2021/12/06 03:21:17;;;;;;;2.85;1.40;;;4.70;93.20;;;;;;5157080;27;20121;-77
2021/12/06 03:23:44;;;;;;;3.63;1.67;;;4.70;93.20;;;;;;5139076;27;20072;-77
2021/12/06 03:26:10;;;;;;;3.03;1.55;;;4.60;93.20;;;;;;5139071;27;20034;-77
2021/12/06 03:28:39;;;;;;;3.80;1.85;;;4.70;93.30;;;;;;5157131;27;20840;-77
2021/12/06 03:31:06;;;;;;;3.38;1.80;;;4.70;93.30;;;;;;5120981;27;20042;-77
2021/12/06 03:33:35;;;;;;;3.38;1.60;;;4.70;93.30;;;;;;5121937;27;20038;-78
2021/12/06 03:36:03;;;;;;;3.60;1.60;;;4.70;93.30;;;;;;5138282;27;20370;-76
2021/12/06 03:38:29;;;;;;;3.28;1.60;;;4.70;93.20;;;;;;5120824;27;20397;-77
2021/12/06 03:40:55;;;;;;;4.43;1.48;;;4.70;93.30;;;;;;5157130;27;20035;-77
2021/12/06 03:43:21;;;;;;;3.45;1.40;;;4.70;93.30;;;;;;5156984;27;20066;-77
2021/12/06 03:45:47;;;;;;;2.78;1.48;;;4.70;93.30;;;;;;5138427;27;20066;-76
2021/12/06 03:48:13;;;;;;;3.45;1.50;;;4.70;93.30;;;;;;5155040;27;20045;-76
2021/12/06 03:50:38;;;;;;;3.20;1.70;;;4.70;93.30;;;;;;5137359;27;20060;-77
2021/12/06 03:53:04;;;;;;;2.47;1.30;;;4.70;93.30;;;;;;5138568;27;20296;-77
2021/12/06 03:55:30;;;;;;;3.53;1.63;;;4.70;93.30;;;;;;5138618;27;20047;-77
2021/12/06 03:57:56;;;;;;;3.92;1.67;;;4.70;93.30;;;;;;5157553;27;20082;-77
2021/12/06 04:00:21;;;;;;;2.65;1.35;;;4.70;93.30;;;;;;5138271;27;20047;-77
2021/12/06 04:02:47;;;;;;;3.67;1.55;;;4.70;93.30;;;;;;5121032;27;20094;-77
2021/12/06 04:05:14;;;;;;;3.90;1.90;;;4.70;93.30;;;;;;5138120;27;20039;-77
2021/12/06 04:07:40;;;;;;;2.85;1.30;;;4.70;93.30;;;;;;5157080;27;20061;-77
2021/12/06 04:10:09;;;;;;;3.50;1.50;;;4.70;93.30;;;;;;5121027;27;20092;-77
2021/12/06 04:12:36;;;;;;;3.90;1.77;;;4.60;93.20;;;;;;5121049;27;20342;-77
2021/12/06 04:15:07;;;;;;;3.85;1.67;;;4.60;93.30;;;;;;5138612;27;20041;-77
2021/12/06 04:17:34;;;;;;;4.70;2.23;;;4.70;93.30;;;;;;5157290;27;20062;-77
2021/12/06 04:20:00;;;;;;;4.35;1.90;;;4.60;93.30;;;;;;5157139;27;20280;-76
2021/12/06 04:22:26;;;;;;;3.83;1.80;;;4.60;93.30;;;;;;5157624;27;20106;-77
2021/12/06 04:24:52;;;;;;;4.60;2.10;;;4.70;93.30;;;;;;5157055;27;20038;-77
2021/12/06 04:27:19;;;;;;;5.47;1.98;;;4.60;93.30;;;;;;5138408;27;20058;-77
2021/12/06 04:29:49;;;;;;;4.50;2.15;;;4.60;93.30;;;;;;5138851;27;20038;-77
2021/12/06 04:32:16;;;;;;;8.55;2.70;;;4.60;93.30;;;;;;5138061;27;20070;-77
2021/12/06 04:34:43;;;;;;;4.40;2.10;;;4.60;93.30;;;;;;5157194;27;20035;-76
2021/12/06 04:37:10;;;;;;;3.50;1.70;;;4.60;93.30;;;;;;5156930;27;20035;-76
2021/12/06 04:39:37;;;;;;;4.22;1.75;;;4.70;93.30;;;;;;5157218;27;20039;-77
2021/12/06 04:42:03;;;;;;;3.45;1.70;;;4.60;93.30;;;;;;5156922;27;20430;-77
2021/12/06 04:44:30;;;;;;;4.28;1.95;;;4.70;93.30;;;;;;5137794;27;20552;-77
2021/12/06 04:46:57;;;;;;;5.18;2.30;;;4.60;93.30;;;;;;5157117;27;20046;-76
2021/12/06 04:49:25;;;;;;;4.35;2.00;;;4.60;93.30;;;;;;5120931;27;20038;-77
2021/12/06 04:51:54;;;;;;;3.47;1.80;;;4.60;93.30;;;;;;5141877;27;20541;-77
2021/12/06 04:54:24;;;;;;;3.47;1.70;;;4.60;93.30;;;;;;5142624;27;20039;-77
2021/12/06 04:56:58;;;;;;;4.55;2.03;;;4.60;93.30;;;;;;5124373;27;20031;-77
2021/12/06 04:59:36;;;;;;;4.20;1.88;;;4.60;93.30;;;;;;5125082;27;20389;-77
2021/12/06 05:02:09;;;;;;;4.20;1.80;;;4.60;93.30;;;;;;5142016;27;20039;-77
2021/12/06 05:04:38;;;;;;;3.85;1.70;;;4.60;93.30;;;;;;5160363;27;20042;-77
2021/12/06 05:07:09;;;;;;;5.97;2.45;;;4.60;93.30;;;;;;5141534;27;20088;-77
2021/12/06 05:09:36;;;;;;;;;;;4.60;93.30;;;;;;5142695;27;20126;-77
2021/12/06 05:12:04;;;;;;;4.55;1.98;;;4.50;93.30;;;;;;5159804;27;20297;-77
2021/12/06 05:14:30;;;;;;;4.97;2.03;;;4.50;93.30;;;;;;5160047;27;20041;-77
2021/12/06 05:16:56;;;;;;;4.32;1.67;;;4.50;93.30;;;;;;5141157;27;20126;-77
2021/12/06 05:19:23;;;;;;;3.58;1.55;;;4.40;93.30;;;;;;5160164;27;20034;-77
2021/12/06 05:21:49;;;;;;;3.30;1.65;;;4.40;93.30;;;;;;5142168;27;20087;-77
2021/12/06 05:24:16;;;;;;;3.95;1.60;;;4.30;93.30;;;;;;5141530;27;20501;-77
2021/12/06 05:26:42;;;;;;;3.92;1.52;;;4.40;93.40;;;;;;5141661;27;20046;-77
2021/12/06 05:29:11;;;;;;;3.47;1.60;;;4.30;93.40;;;;;;5160014;27;20498;-77
2021/12/06 05:31:40;;;;;;;3.05;1.42;;;4.20;93.40;;;;;;5140283;27;20041;-77
2021/12/06 05:34:13;;;;;;;3.22;1.35;;;4.20;93.40;;;;;;5159121;27;20042;-77
2021/12/06 05:36:39;;;;;;;4.60;1.73;;;4.20;93.40;;;;;;5142311;27;20099;-77
2021/12/06 05:39:06;;;;;;;4.82;2.03;;;4.10;93.50;;;;;;5140555;27;20035;-77
2021/12/06 05:41:33;;;;;;;4.82;2.10;;;4.10;93.50;;;;;;5123117;27;20039;-77
2021/12/06 05:44:00;;;;;;;5.35;2.15;;;4.10;93.50;;;;;;5141463;27;20074;-76
2021/12/06 05:46:26;;;;;;;4.68;1.90;;;4.00;93.50;;;;;;5123899;27;20042;-77
2021/12/06 05:48:52;;;;;;;3.20;1.70;;;4.00;93.60;;;;;;5123465;27;20041;-77
2021/12/06 05:51:18;;;;;;;2.85;1.35;;;4.00;93.60;;;;;;5140656;27;20464;-77
2021/12/06 05:53:44;;;;;;;4.60;1.83;;;3.90;93.50;;;;;;5123369;27;20039;-77
2021/12/06 05:56:10;;;;;;;3.22;1.40;;;3.90;93.60;;;;;;5140571;27;20507;-76
2021/12/06 05:58:37;;;;;;;3.38;1.50;;;3.80;93.60;;;;;;5159701;27;20481;-77
2021/12/06 06:01:04;;;;;;;3.92;1.67;;;3.80;93.60;;;;;;5123392;27;20535;-77
2021/12/06 06:03:30;;;;;;;3.65;1.45;;;3.80;93.60;;;;;;5158784;27;20038;-77
2021/12/06 06:05:56;;;;;;;3.92;1.83;;;3.70;93.70;;;;;;5140102;27;20485;-77
2021/12/06 06:08:22;;;;;;;3.15;1.42;;;3.80;93.70;;;;;;5159051;27;20074;-77
2021/12/06 06:10:50;;;;;;;3.78;1.80;;;3.80;93.70;;;;;;5159911;27;20035;-78
2021/12/06 06:13:17;;;;;;;4.57;1.77;;;3.80;93.70;;;;;;5124746;27;20403;-77
2021/12/06 06:15:44;;;;;;;4.60;1.83;;;3.90;93.70;;;;;;5160425;27;20065;-78
2021/12/06 06:18:10;;;;;;;5.97;2.17;;;3.90;93.70;;;;;;5141774;27;20045;-78
2021/12/06 06:20:43;;;;;;;4.13;1.95;;;3.80;93.60;;;;;;5106012;27;20129;-78
2021/12/06 06:23:09;;;;;;;3.78;1.75;;;3.80;93.60;;;;;;5123316;27;20034;-78
2021/12/06 06:25:35;;;;;;;4.88;2.05;;;3.90;93.60;;;;;;5141904;27;20457;-78
2021/12/06 06:28:02;;;;;;;3.55;1.58;;;3.90;93.50;;;;;;5140201;27;20509;-75
2021/12/06 06:30:29;;;;;;;4.10;2.03;;;3.90;93.50;;;;;;5126391;27;20046;-78
2021/12/06 06:32:55;;;;;;;5.43;2.38;;;3.90;93.50;;;;;;5140171;27;20116;-78
2021/12/06 06:35:23;;;;;;;5.47;2.40;;;3.90;93.50;;;;;;5140105;27;20042;-77
2021/12/06 06:37:49;;;;;;;4.43;2.22;;;3.90;93.50;;;;;;5158068;27;20118;-79
2021/12/06 06:40:16;;;;;;;5.00;1.63;;;3.90;93.50;;;;;;5160406;27;20035;-77
2021/12/06 06:42:43;;;;;;;6.18;2.40;;;3.90;93.50;;;;;;5160706;27;20070;-78
2021/12/06 06:45:13;;;;;;;4.95;2.00;;;4.00;93.50;;;;;;5141588;27;20397;-78
2021/12/06 06:47:39;;;;;;;4.07;2.15;;;4.00;93.50;;;;;;5126495;27;20122;-78
2021/12/06 06:50:06;;;;;;;4.88;2.10;;;4.00;93.40;;;;;;5106829;27;20074;-77
2021/12/06 06:52:32;;;;;;;4.30;1.90;;;4.00;93.40;;;;;;5123576;27;20409;-77
2021/12/06 06:54:59;;;;;;;4.45;2.17;;;4.00;93.40;;;;;;5125538;27;20042;-77
2021/12/06 06:57:26;;;;;;;4.10;1.85;;;4.00;93.40;;;;;;5141821;27;20042;-77
2021/12/06 06:59:52;;;;;;;3.20;1.45;;;4.00;93.60;;;;;;5158426;27;20083;-77
2021/12/06 07:02:18;;;;;;;5.68;2.70;;;4.10;93.40;;;;;;5156594;27;20039;-77
2021/12/06 07:04:44;;;;;;;5.47;2.45;;;4.10;93.40;;;;;;5141552;27;20092;-77
2021/12/06 07:07:10;;;;;;;4.10;2.05;;;4.10;93.40;;;;;;5141913;27;20133;-77
2021/12/06 07:09:36;;;;;;;6.13;2.05;;;4.10;93.40;;;;;;5140754;27;20118;-77
2021/12/06 07:12:02;;;;;;;4.05;1.88;;;4.00;93.30;;;;;;5139982;27;20035;-77
2021/12/06 07:14:28;;;;;;;3.97;1.90;;;4.10;93.40;;;;;;5140890;27;20050;-77
2021/12/06 07:16:54;;;;;;;4.63;2.08;;;4.00;93.30;;;;;;5142758;27;20098;-78
2021/12/06 07:19:20;;;;;;;4.93;2.22;;;4.10;93.40;;;;;;5124069;27;20038;-77
2021/12/06 07:21:46;;;;;;;3.67;1.70;;;4.10;93.40;;;;;;5147105;27;20045;-77
2021/12/06 07:24:12;;;;;;;8.73;2.67;;;4.10;93.40;;;;;;5129333;27;20038;-78
2021/12/06 07:26:38;;;;;;;5.20;2.30;;;4.10;93.30;;;;;;5141713;27;20046;-77
2021/12/06 07:29:04;;;;;;;8.32;3.20;;;4.10;93.30;;;;;;5140816;27;20394;-77
2021/12/06 07:31:30;;;;;;;6.43;2.72;;;4.10;93.30;;;;;;5140103;27;20073;-77
2021/12/06 07:33:57;;;;;;;6.10;2.67;;;4.00;93.30;;;;;;5106432;27;20065;-77
2021/12/06 07:36:25;;;;;;;3.85;1.90;;;4.10;93.30;;;;;;5139507;27;20558;-77
2021/12/06 07:38:52;;;;;;;5.68;2.60;;;4.00;93.30;;;;;;5139025;27;20039;-77
2021/12/06 07:41:22;;;;;;;4.22;2.22;;;4.00;93.30;;;;;;5157403;27;20374;-77
2021/12/06 07:43:47;;;;;;;4.60;2.40;;;4.00;93.40;;;;;;5138795;27;20042;-77
2021/12/06 07:46:15;;;;;;;4.82;2.30;;;4.00;93.30;;;;;;5137342;27;20047;-77
2021/12/06 07:48:41;;;;;;;4.65;1.98;;;4.10;93.40;;;;;;5155077;27;20054;-77
2021/12/06 07:51:07;;;;;;;5.03;2.10;;;4.00;93.40;;;;;;5155500;27;20062;-77
2021/12/06 07:53:35;;;;;;;6.05;2.08;;;4.00;93.40;;;;;;5119866;27;20057;-77
2021/12/06 07:56:01;;;;;;;7.18;2.80;;;4.10;93.40;;;;;;5137178;27;20085;-77
2021/12/06 07:58:28;;;;;;;5.22;2.00;;;4.10;93.40;;;;;;5156025;27;20076;-78
2021/12/06 08:00:55;;;;;;;4.53;1.90;;;4.10;93.40;;;;;;5155107;27;20038;-78
2021/12/06 08:03:23;;;;;;;4.30;2.28;;;4.00;93.40;;;;;;5142689;27;20027;-79
2021/12/06 08:05:52;;;;;;;3.50;1.67;;;4.00;93.40;;;;;;5119109;27;20129;-77
2021/12/06 08:08:28;;;;;;;3.47;1.85;;;4.00;93.40;;;;;;5136214;27;20125;-78
2021/12/06 08:10:56;;;;;;;3.40;1.60;;;4.00;93.40;;;;;;5136261;27;20049;-78
2021/12/06 08:13:26;;;;;;;2.90;1.50;;;4.00;93.40;;;;;;5135844;27;20054;-77
2021/12/06 08:15:54;;;;;;;2.88;1.48;;;4.10;93.40;;;;;;5135590;27;20364;-78
2021/12/06 08:18:20;;;;;;;4.40;1.90;;;4.00;93.40;;;;;;5118624;27;20118;-79
2021/12/06 08:20:47;;;;;;;6.32;2.08;;;4.00;93.40;;;;;;5119040;27;20039;-78
2021/12/06 08:23:13;;;;;;;3.90;1.80;;;4.00;93.40;;;;;;5118534;27;20031;-78
2021/12/06 08:25:41;;;;;;;5.60;2.30;;;4.10;93.40;;;;;;5135141;27;20042;-79
2021/12/06 08:28:06;;;;;;;2.80;1.52;;;4.10;93.40;;;;;;5118417;27;20052;-77
2021/12/06 08:30:33;;;;;;;3.35;1.63;;;4.10;93.40;;;;;;5135331;27;20038;-78
2021/12/06 08:33:01;;;;;;;3.63;1.80;;;4.00;93.40;;;;;;5135505;27;20035;-78
2021/12/06 08:35:28;;;;;;;5.85;2.40;;;4.00;93.40;;;;;;5118300;27;20084;-77
2021/12/06 08:37:55;;;;;;;6.53;2.30;;;4.00;93.40;;;;;;5135680;27;20034;-76
2021/12/06 08:40:21;;;;;;;4.40;2.20;;;4.10;93.40;;;;;;5135477;27;20073;-76
2021/12/06 08:42:48;;;;;;;5.13;1.85;;;4.00;93.40;;;;;;5153839;27;20520;-76
2021/12/06 08:45:14;;;;;;;6.25;2.22;;;4.00;93.40;;;;;;5118126;27;20489;-77
2021/12/06 08:47:42;;;;;;;5.30;2.40;;;4.00;93.40;;;;;;5117989;27;20058;-77
2021/12/06 08:50:11;;;;;;;4.07;2.00;;;4.00;93.40;;;;;;5154008;27;20469;-77
2021/12/06 08:52:37;;;;;;;3.40;1.67;;;4.10;93.50;;;;;;5117819;27;20043;-77
2021/12/06 08:55:05;;;;;;;4.97;2.05;;;4.00;93.40;;;;;;5153687;27;20051;-77
2021/12/06 08:57:30;;;;;;;4.90;2.17;;;3.90;93.70;;;;;;5117828;27;20035;-78
2021/12/06 08:59:56;;;;;;;2.92;1.60;;;4.00;93.50;;;;;;5101317;27;20062;-76
2021/12/06 09:02:22;;;;;;;3.42;1.63;;;4.00;93.40;;;;;;5154259;27;20111;-77
2021/12/06 09:04:48;;;;;;;3.58;1.67;;;4.10;93.50;;;;;;5100975;27;20078;-76
2021/12/06 09:07:15;;;;;;;2.55;1.48;;;4.10;93.50;;;;;;5135068;27;20099;-77
2021/12/06 09:09:46;;;;;;;2.95;1.65;;;4.10;93.40;;;;;;5154631;27;20427;-78
2021/12/06 09:12:16;;;;;;;3.13;1.60;;;4.10;93.40;;;;;;5117775;27;20077;-79
2021/12/06 09:14:42;;;;;;;6.13;2.70;;;4.20;93.40;;;;;;5139176;27;20158;-82
2021/12/06 09:17:07;;;;;;;3.15;1.52;;;4.20;93.40;;;;;;5138380;27;20054;-78
2021/12/06 09:19:34;;;;;;;5.20;2.15;;;4.20;93.40;;;;;;5153706;27;20043;-78
2021/12/06 09:22:00;;;;;;;4.35;2.13;;;4.30;93.40;;;;;;5153531;27;20070;-78
2021/12/06 09:24:26;;;;;;;3.97;1.95;;;4.30;93.30;;;;;;5135839;27;20070;-77
2021/12/06 09:26:52;;;;;;;4.30;2.10;;;4.20;93.40;;;;;;5153489;27;20482;-78
2021/12/06 09:29:24;;;;;;;2.40;1.40;;;4.20;93.30;;;;;;5117547;27;20133;-78
2021/12/06 09:31:51;;;;;;;2.40;1.23;;;4.30;93.30;;;;;;5135306;27;20083;-77
2021/12/06 09:34:17;;;;;;;3.33;1.55;;;4.30;93.30;;;;;;5136621;27;20111;-79
2021/12/06 09:36:43;;;;;;;5.05;1.88;;;4.20;93.30;;;;;;5134922;27;20123;-79
2021/12/06 09:39:10;;;;;;;3.15;1.33;;;4.30;93.40;;;;;;5156487;27;20031;-78
2021/12/06 09:41:36;;;;;;;4.20;2.03;;;4.20;93.30;;;;;;5156626;27;20092;-78
2021/12/06 09:44:04;;;;;;;3.00;1.73;;;4.30;93.70;;;;;;5137860;27;20147;-78
2021/12/06 09:46:35;;;;;;;4.55;2.22;;;4.30;93.40;;;;;;5120788;27;20050;-78
2021/12/06 09:49:04;;;;;;;2.90;1.77;;;4.30;93.40;;;;;;5140895;27;20099;-78
2021/12/06 09:51:31;;;;;;;5.65;2.03;;;4.20;93.30;;;;;;5138715;27;20061;-78
2021/12/06 09:53:58;;;;;;;3.20;1.77;;;4.30;93.40;;;;;;5138020;27;20489;-78
2021/12/06 09:56:33;;;;;;;5.22;2.50;;;4.30;93.40;;;;;;5122965;27;20038;-78
2021/12/06 09:59:05;;;;;;;2.35;1.52;;;4.20;93.40;;;;;;5158559;27;20039;-77
2021/12/06 10:01:35;;;;;;;3.03;1.63;;;4.30;93.40;;;;;;5121758;27;20035;-78
2021/12/06 10:04:06;;;;;;;4.57;2.28;;;4.30;93.40;;;;;;5156245;27;20062;-78
2021/12/06 10:06:32;;;;;;;2.83;1.50;;;4.30;93.40;;;;;;5138328;27;20042;-78
2021/12/06 10:09:02;;;;;;;3.97;1.83;;;4.30;93.40;;;;;;5122875;27;20504;-79
2021/12/06 10:11:28;;;;;;;4.15;1.95;;;4.30;93.70;;;;;;5138012;27;20038;-78
2021/12/06 10:13:55;;;;;;;3.03;1.63;;;4.30;93.40;;;;;;5138318;27;20158;-78
2021/12/06 10:16:22;;;;;;;5.30;1.75;;;4.30;93.30;;;;;;5137322;27;20042;-78
2021/12/06 10:18:48;;;;;;;4.25;1.98;;;4.40;93.40;;;;;;5120276;27;20046;-79
2021/12/06 10:21:15;;;;;;;3.10;1.63;;;4.60;93.40;;;;;;5137366;27;20148;-79
2021/12/06 10:23:42;;;;;;;3.72;1.55;;;4.30;93.40;;;;;;5120506;27;20039;-80
2021/12/06 10:26:12;;;;;;;3.53;1.63;;;4.30;93.40;;;;;;5120242;27;20484;-79
2021/12/06 10:28:41;;;;;;;4.82;2.20;;;4.40;93.40;;;;;;5138024;27;20050;-80
2021/12/06 10:31:08;;;;;;;4.38;2.40;;;4.40;93.30;;;;;;5155568;27;20030;-79
2021/12/06 10:33:40;;;;;;;4.80;2.28;;;4.40;93.20;;;;;;5119852;27;20054;-79
2021/12/06 10:36:11;;;;;;;5.65;2.42;;;4.30;93.30;;;;;;5120358;27;20066;-78
2021/12/06 10:38:40;;;;;;;6.50;3.05;;;4.40;93.30;;;;;;5103150;27;20038;-79
2021/12/06 10:41:10;;;;;;;7.28;3.08;;;4.30;93.30;;;;;;5120066;27;20112;-78
2021/12/06 10:43:36;;;;;;;5.10;2.40;;;4.30;93.30;;;;;;5137257;27;20104;-78
2021/12/06 10:46:04;;;;;;;5.15;2.50;;;4.40;93.40;;;;;;5155441;27;20482;-78
2021/12/06 10:48:33;;;;;;;5.55;2.50;;;4.30;93.30;;;;;;5120125;27;20544;-78
2021/12/06 10:51:06;;;;;;;3.35;2.00;;;4.40;93.30;;;;;;5119862;27;20035;-80
2021/12/06 10:53:46;;;;;;;5.90;2.88;;;4.40;93.30;;;;;;5120032;27;20074;-80
2021/12/06 10:56:20;;;;;;;5.78;2.90;;;4.40;93.20;;;;;;5136644;27;20512;-80
2021/12/06 10:58:48;;;;;;;7.10;3.38;;;4.30;93.20;;;;;;5104426;27;20485;-80
2021/12/06 11:01:20;;;;;;;6.47;3.10;;;4.30;93.30;;;;;;5120227;27;20039;-79
2021/12/06 11:03:51;;;;;;;6.65;3.08;;;4.20;93.30;;;;;;5155218;27;20053;-79
2021/12/06 11:06:27;;;;;;;7.70;3.28;;;4.30;93.30;;;;;;5137448;27;20027;-80
2021/12/06 11:08:57;;;;;;;7.85;2.92;;;4.30;93.30;;;;;;5119413;27;20034;-80
2021/12/06 11:11:28;;;;;;;7.25;2.95;;;4.30;93.30;;;;;;5120633;27;20401;-76
2021/12/06 11:13:58;;;;;;;6.60;2.95;;;4.30;93.20;;;;;;5137530;27;20035;-77
2021/12/06 11:16:28;;;;;;;6.63;3.22;;;4.30;93.20;;;;;;5136295;27;20043;-77
2021/12/06 11:18:57;;;;;;;7.68;3.25;;;4.30;93.20;;;;;;5155011;27;20064;-77
2021/12/06 11:21:43;;;;;;;6.63;2.90;;;4.30;93.20;;;;;;5136229;27;20043;-77
2021/12/06 11:24:13;;;;;;;7.97;3.42;;;4.30;93.30;;;;;;5154667;27;20459;-77
2021/12/06 11:26:51;;;;;;;8.48;3.30;;;4.30;93.30;;;;;;5136147;27;20126;-77
2021/12/06 11:29:28;;;;;;;6.38;3.20;;;4.30;93.20;;;;;;5154761;27;20043;-77
2021/12/06 11:32:00;;;;;;;7.25;3.50;;;4.30;93.20;;;;;;5154633;27;20060;-76
2021/12/06 11:34:33;;;;;;;7.70;3.17;;;4.20;93.20;;;;;;5155532;27;20046;-78
2021/12/06 11:36:59;;;;;;;6.88;3.13;;;4.20;93.30;;;;;;5136356;27;20095;-77
2021/12/06 11:39:26;;;;;;;10.00;3.30;;;4.20;93.20;;;;;;5154956;27;20039;-77
2021/12/06 11:41:56;;;;;;;8.07;3.05;;;4.20;93.30;;;;;;5155057;27;20141;-77
2021/12/06 11:44:26;;;;;;;4.80;2.25;;;4.20;93.30;;;;;;5136576;27;20034;-78
2021/12/06 11:47:11;;;;;;;7.47;3.00;;;4.20;93.30;;;;;;5135973;27;20047;-78
2021/12/06 11:49:42;;;;;;;6.82;3.08;;;4.20;93.30;;;;;;5135925;27;20500;-78
2021/12/06 11:52:12;;;;;;;7.18;2.78;;;4.20;93.30;;;;;;5136157;27;20133;-78
2021/12/06 11:54:43;;;;;;;6.63;2.60;;;4.10;93.30;;;;;;5136377;27;20049;-78
2021/12/06 11:57:12;;;;;;;6.32;2.72;;;4.20;93.30;;;;;;5118806;27;20035;-78
2021/12/06 11:59:56;;;;;;;7.63;3.05;;;4.10;93.40;;;;;;5101144;27;20050;-80
2021/12/06 12:02:33;;;;;;;7.85;3.08;;;4.20;93.30;;;;;;5154445;27;20042;-78
2021/12/06 12:05:27;;;;;;;6.93;3.00;;;4.20;93.30;;;;;;5154635;27;20064;-78
2021/12/06 12:08:08;;;;;;;6.80;2.53;;;4.10;93.30;;;;;;5118614;27;20069;-77
2021/12/06 12:10:50;;;;;;;6.75;3.00;;;4.20;93.30;;;;;;5102028;27;20038;-78
2021/12/06 12:13:26;;;;;;;5.70;2.55;;;4.20;93.30;;;;;;5118443;27;20043;-77
2021/12/06 12:15:55;;;;;;;6.47;2.70;;;4.20;93.30;;;;;;5137988;27;20046;-78
2021/12/06 12:18:22;;;;;;;6.43;2.95;;;4.20;93.20;;;;;;5154699;27;20470;-79
2021/12/06 12:20:48;;;;;;;6.68;2.75;;;4.10;93.20;;;;;;5156708;27;20038;-79
2021/12/06 12:23:15;;;;;;;5.88;2.30;;;4.00;93.20;;;;;;5124551;27;20064;-78
2021/12/06 12:25:50;;;;;;;5.47;2.38;;;4.10;93.30;;;;;;5159519;27;20062;-78
2021/12/06 12:28:29;;;;;;;4.80;2.47;;;4.10;93.30;;;;;;5156287;27;20050;-77
2021/12/06 12:30:57;;;;;;;5.63;2.67;;;4.10;93.40;;;;;;5134485;27;20181;-76
2021/12/06 12:33:23;;;;;;;5.82;2.63;;;4.10;93.30;;;;;;5164392;27;20027;-77
2021/12/06 12:35:53;;;;;;;5.80;2.42;;;4.10;93.30;;;;;;5112608;27;20023;-77
2021/12/06 12:38:23;;;;;;;5.38;2.63;;;4.10;93.30;;;;;;5128705;27;20038;-77
2021/12/06 12:40:56;;;;;;;4.50;1.95;;;4.10;93.30;;;;;;5165116;27;20030;-77
2021/12/06 12:43:26;;;;;;;5.93;2.35;;;4.10;93.30;;;;;;5120558;27;20034;-76
2021/12/06 12:45:56;;;;;;;5.10;2.30;;;4.10;93.30;;;;;;5147870;27;20039;-77
2021/12/06 12:48:25;;;;;;;4.53;2.08;;;4.20;93.30;;;;;;5126182;27;20166;-77
2021/12/06 12:51:09;;;;;;;5.63;2.67;;;4.10;93.30;;;;;;5120202;27;20051;-78
2021/12/06 12:53:54;;;;;;;5.65;2.50;;;4.10;93.20;;;;;;5118296;27;20064;-78
2021/12/06 12:56:23;;;;;;;6.40;2.92;;;4.20;93.30;;;;;;5136413;27;20478;-78
2021/12/06 12:58:51;;;;;;;6.22;2.97;;;4.10;93.30;;;;;;5117900;27;20043;-79
2021/12/06 13:01:19;;;;;;;7.03;3.17;;;4.10;93.30;;;;;;5117907;27;20488;-79
2021/12/06 13:04:01;;;;;;;6.15;2.90;;;4.10;93.20;;;;;;5135133;27;20038;-79
2021/12/06 13:06:30;;;;;;;6.85;3.47;;;4.10;93.30;;;;;;5134869;27;20027;-79
2021/12/06 13:09:02;;;;;;;7.03;3.38;;;4.00;93.20;;;;;;5135165;27;20084;-79